createdAt,value
2022-11-27T00:01:36.065Z,2.92
2022-11-27T00:04:04.601Z,2.90
2022-11-27T00:06:32.384Z,4.13
2022-11-27T00:09:01.795Z,2.35
2022-11-27T00:11:30.557Z,2.20
2022-11-27T00:14:00.202Z,4.45
2022-11-27T00:16:28.338Z,4.55
2022-11-27T00:18:55.435Z,5.65
2022-11-27T00:21:29.611Z,6.20
2022-11-27T00:23:59.475Z,4.65
2022-11-27T00:26:30.875Z,3.65
2022-11-27T00:29:01.714Z,7.45
2022-11-27T00:31:34.072Z,10.30
2022-11-27T00:34:04.037Z,4.95
2022-11-27T00:36:33.463Z,3.63
2022-11-27T00:39:03.852Z,4.03
2022-11-27T00:41:31.740Z,3.33
2022-11-27T00:44:01.375Z,7.78
2022-11-27T00:46:31.489Z,3.15
2022-11-27T00:49:06.440Z,2.70
2022-11-27T00:51:33.821Z,7.13
2022-11-27T00:54:03.150Z,5.15
2022-11-27T00:56:38.569Z,5.35
2022-11-27T00:59:07.107Z,7.72
2022-11-27T01:01:41.171Z,12.98
2022-11-27T01:04:13.239Z,4.47
2022-11-27T01:06:40.643Z,4.07
2022-11-27T01:09:10.632Z,3.95
2022-11-27T01:11:40.079Z,5.60
2022-11-27T01:14:14.527Z,4.70
2022-11-27T01:16:44.045Z,7.78
2022-11-27T01:19:13.226Z,2.35
2022-11-27T01:21:41.052Z,6.75
2022-11-27T01:24:08.827Z,4.70
2022-11-27T01:26:38.178Z,3.25
2022-11-27T01:29:08.134Z,2.95
2022-11-27T01:31:37.695Z,7.22
2022-11-27T01:34:08.995Z,5.90
2022-11-27T01:36:36.136Z,4.32
2022-11-27T01:39:04.043Z,2.88
2022-11-27T01:41:36.457Z,7.57
2022-11-27T01:44:26.030Z,12.48
2022-11-27T01:47:02.150Z,7.38
2022-11-27T01:49:49.320Z,10.00
2022-11-27T01:52:32.520Z,3.38
2022-11-27T01:55:04.525Z,5.13
2022-11-27T01:57:41.544Z,8.52
2022-11-27T02:00:14.829Z,8.70
2022-11-27T02:02:46.993Z,2.38
2022-11-27T02:05:24.253Z,2.47
2022-11-27T02:07:55.409Z,6.60
2022-11-27T02:10:34.362Z,3.75
2022-11-27T02:13:38.293Z,3.63
2022-11-27T02:16:37.109Z,3.60
2022-11-27T02:19:39.643Z,4.65
2022-11-27T02:23:09.463Z,4.05
2022-11-27T02:26:02.146Z,5.78
2022-11-27T02:28:31.982Z,6.35
2022-11-27T02:31:17.008Z,3.08
2022-11-27T02:33:47.193Z,2.50
2022-11-27T02:36:22.857Z,3.78
2022-11-27T02:39:01.882Z,2.47
2022-11-27T02:41:51.544Z,6.50
2022-11-27T02:44:22.273Z,2.17
2022-11-27T02:46:50.223Z,1.80
2022-11-27T02:49:20.241Z,3.90
2022-11-27T02:51:56.162Z,4.88
2022-11-27T02:54:29.488Z,2.80
2022-11-27T02:57:05.087Z,1.70
2022-11-27T02:59:33.810Z,9.23
2022-11-27T03:02:10.093Z,1.98
2022-11-27T03:04:48.146Z,4.38
2022-11-27T03:07:59.354Z,2.10
2022-11-27T03:11:06.112Z,2.47
2022-11-27T03:13:42.272Z,6.00
2022-11-27T03:16:35.691Z,2.08
2022-11-27T03:19:17.333Z,16.10
2022-11-27T03:21:55.790Z,2.78
2022-11-27T03:24:23.297Z,5.20
2022-11-27T03:26:52.143Z,5.10
2022-11-27T03:29:31.388Z,7.07
2022-11-27T03:31:58.405Z,6.28
2022-11-27T03:34:26.261Z,21.27
2022-11-27T03:36:53.064Z,8.48
2022-11-27T03:39:21.604Z,7.55
2022-11-27T03:42:15.886Z,2.15
2022-11-27T03:44:53.499Z,2.22
2022-11-27T03:47:29.197Z,3.80
2022-11-27T03:50:18.077Z,7.65
2022-11-27T03:53:06.047Z,1.90
2022-11-27T03:55:35.632Z,5.45
2022-11-27T03:58:09.742Z,6.38
2022-11-27T04:00:43.677Z,3.63
2022-11-27T04:03:15.668Z,4.22
2022-11-27T04:05:42.578Z,3.92
2022-11-27T04:08:11.943Z,3.05
2022-11-27T04:10:41.354Z,4.63
2022-11-27T04:13:08.263Z,1.88
2022-11-27T04:15:37.415Z,1.92
2022-11-27T04:18:04.527Z,4.53
2022-11-27T04:20:34.202Z,2.13
2022-11-27T04:23:03.747Z,4.90
2022-11-27T04:25:30.761Z,2.08
2022-11-27T04:27:57.696Z,6.80
2022-11-27T04:30:27.051Z,2.17
2022-11-27T04:32:53.901Z,3.35
2022-11-27T04:35:20.792Z,1.52
2022-11-27T04:37:47.601Z,2.13
2022-11-27T04:40:14.718Z,8.15
2022-11-27T04:42:44.106Z,10.25
2022-11-27T04:45:11.503Z,3.80
2022-11-27T04:47:41.369Z,3.88
2022-11-27T04:50:11.291Z,2.15
2022-11-27T04:52:38.096Z,7.28
2022-11-27T04:55:06.021Z,7.10
2022-11-27T04:57:35.382Z,8.73
2022-11-27T05:00:05.253Z,4.18
2022-11-27T05:02:32.265Z,3.00
2022-11-27T05:05:01.299Z,4.93
2022-11-27T05:07:30.704Z,1.63
2022-11-27T05:09:59.888Z,3.47
2022-11-27T05:12:26.770Z,2.50
2022-11-27T05:14:55.800Z,5.15
2022-11-27T05:17:22.868Z,4.68
2022-11-27T05:19:49.709Z,2.03
2022-11-27T05:22:16.526Z,4.97
2022-11-27T05:24:46.435Z,2.83
2022-11-27T05:27:13.309Z,11.82
2022-11-27T05:29:40.324Z,3.97
2022-11-27T05:32:07.180Z,14.20
2022-11-27T05:34:36.249Z,6.05
2022-11-27T05:37:03.094Z,1.65
2022-11-27T05:39:32.510Z,3.78
2022-11-27T05:41:59.341Z,5.20
2022-11-27T05:44:29.461Z,2.17
2022-11-27T05:46:57.288Z,6.80
2022-11-27T05:49:24.305Z,5.70
2022-11-27T05:51:51.880Z,3.40
2022-11-27T05:54:23.980Z,2.88
2022-11-27T05:56:50.811Z,3.50
2022-11-27T05:59:20.668Z,4.65
2022-11-27T06:01:50.606Z,5.00
2022-11-27T06:04:20.137Z,3.15
2022-11-27T06:06:49.280Z,6.47
2022-11-27T06:09:16.293Z,2.42
2022-11-27T06:11:47.668Z,4.97
2022-11-27T06:14:14.500Z,1.63
2022-11-27T06:16:43.875Z,8.90
2022-11-27T06:19:10.821Z,2.10
2022-11-27T06:21:37.797Z,4.30
2022-11-27T06:24:09.890Z,2.47
2022-11-27T06:26:36.837Z,1.80
2022-11-27T06:29:08.766Z,2.67
2022-11-27T06:31:36.125Z,2.40
2022-11-27T06:34:12.833Z,2.60
2022-11-27T06:36:46.403Z,11.90
2022-11-27T06:39:16.365Z,7.00
2022-11-27T06:41:43.518Z,2.78
2022-11-27T06:44:10.972Z,3.40
2022-11-27T06:46:38.054Z,3.40
2022-11-27T06:49:05.147Z,2.03
2022-11-27T06:51:35.253Z,2.78
2022-11-27T06:54:02.830Z,2.85
2022-11-27T06:56:32.877Z,5.00
2022-11-27T06:59:03.501Z,4.05
2022-11-27T07:01:31.892Z,2.67
2022-11-27T07:03:59.294Z,3.70
2022-11-27T07:06:29.643Z,2.35
2022-11-27T07:08:59.020Z,2.58
2022-11-27T07:11:29.751Z,2.60
2022-11-27T07:14:00.706Z,2.33
2022-11-27T07:16:30.970Z,2.08
2022-11-27T07:19:06.944Z,2.83
2022-11-27T07:21:37.464Z,2.90
2022-11-27T07:24:06.837Z,2.97
2022-11-27T07:26:33.843Z,3.58
2022-11-27T07:29:00.777Z,3.13
2022-11-27T07:31:30.948Z,2.70
2022-11-27T07:33:58.492Z,2.58
2022-11-27T07:36:32.926Z,2.10
2022-11-27T07:38:59.840Z,2.88
2022-11-27T07:41:32.100Z,2.80
2022-11-27T07:44:01.004Z,3.53
2022-11-27T07:46:30.644Z,3.38
2022-11-27T07:48:58.209Z,3.83
2022-11-27T07:51:25.053Z,4.47
2022-11-27T07:53:54.147Z,3.40
2022-11-27T07:56:21.654Z,3.75
2022-11-27T07:58:51.461Z,3.75
2022-11-27T08:01:19.871Z,2.75
2022-11-27T08:03:47.426Z,3.20
2022-11-27T08:06:27.741Z,3.40
2022-11-27T08:08:58.051Z,3.85
2022-11-27T08:11:29.810Z,3.28
2022-11-27T08:14:02.859Z,4.00
2022-11-27T08:16:33.922Z,4.57
2022-11-27T08:19:01.103Z,4.88
2022-11-27T08:21:29.423Z,6.60
2022-11-27T08:23:57.659Z,4.65
2022-11-27T08:26:27.517Z,4.05
2022-11-27T08:28:58.110Z,4.10
2022-11-27T08:31:25.569Z,3.08
2022-11-27T08:33:54.791Z,3.25
2022-11-27T08:36:26.494Z,3.72
2022-11-27T08:38:54.307Z,4.65
2022-11-27T08:41:24.138Z,5.07
2022-11-27T08:43:51.348Z,3.70
2022-11-27T08:46:18.358Z,5.25
2022-11-27T08:48:45.235Z,5.70
2022-11-27T08:51:15.474Z,5.00
2022-11-27T08:53:45.732Z,5.47
2022-11-27T08:56:23.350Z,5.47
2022-11-27T08:58:50.567Z,4.57
2022-11-27T09:01:26.007Z,5.25
2022-11-27T09:03:53.424Z,6.97
2022-11-27T09:06:28.164Z,4.47
2022-11-27T09:09:00.134Z,4.28
2022-11-27T09:11:33.426Z,4.60
2022-11-27T09:14:08.753Z,5.68
2022-11-27T09:16:36.252Z,7.78
2022-11-27T09:19:03.462Z,6.90
2022-11-27T09:21:33.387Z,8.52
2022-11-27T09:24:03.191Z,6.93
2022-11-27T09:26:30.646Z,6.85
2022-11-27T09:28:59.410Z,5.65
2022-11-27T09:31:26.705Z,6.63
2022-11-27T09:33:55.837Z,8.32
2022-11-27T09:36:25.667Z,6.03
2022-11-27T09:38:53.622Z,5.65
2022-11-27T09:41:39.834Z,5.47
2022-11-27T09:44:23.000Z,3.83
2022-11-27T09:46:51.848Z,5.35
2022-11-27T09:49:33.756Z,6.57
2022-11-27T09:52:17.873Z,3.85
2022-11-27T09:55:01.030Z,3.80
2022-11-27T09:57:39.592Z,4.32
2022-11-27T10:00:19.380Z,4.13
2022-11-27T10:02:48.063Z,4.13
2022-11-27T10:05:24.915Z,4.07
2022-11-27T10:08:07.886Z,5.43
2022-11-27T10:10:53.168Z,4.47
2022-11-27T10:14:07.774Z,3.88
2022-11-27T10:16:45.030Z,3.58
2022-11-27T10:20:02.410Z,4.10
2022-11-27T10:22:57.298Z,3.60
2022-11-27T10:25:53.247Z,4.50
2022-11-27T10:28:42.043Z,4.43
2022-11-27T10:31:49.710Z,4.32
2022-11-27T10:34:34.903Z,3.97
2022-11-27T10:37:08.303Z,4.90
2022-11-27T10:39:45.319Z,6.05
2022-11-27T10:42:55.531Z,5.18
2022-11-27T10:45:57.811Z,6.45
2022-11-27T10:48:28.522Z,6.22
2022-11-27T10:50:56.266Z,5.33
2022-11-27T10:53:28.931Z,6.47
2022-11-27T10:56:31.387Z,6.75
2022-11-27T10:59:12.002Z,7.13
2022-11-27T11:01:54.767Z,6.63
2022-11-27T11:04:43.265Z,5.75
2022-11-27T11:07:27.583Z,7.03
2022-11-27T11:09:56.479Z,7.32
2022-11-27T11:12:24.544Z,6.45
2022-11-27T11:14:56.704Z,9.57
2022-11-27T11:17:40.741Z,9.27
2022-11-27T11:20:34.116Z,7.93
2022-11-27T11:23:00.997Z,10.32
2022-11-27T11:25:30.336Z,8.77
2022-11-27T11:27:57.459Z,26.02
2022-11-27T11:30:29.266Z,18.60
2022-11-27T11:33:04.290Z,9.50
2022-11-27T11:35:36.353Z,10.40
2022-11-27T11:38:16.843Z,8.43
2022-11-27T11:41:07.546Z,9.98
2022-11-27T11:43:37.978Z,7.75
2022-11-27T11:46:28.624Z,7.68
2022-11-27T11:49:23.789Z,8.30
2022-11-27T11:52:22.285Z,10.80
2022-11-27T11:55:11.744Z,7.85
2022-11-27T11:57:54.140Z,8.68
2022-11-27T12:00:30.258Z,7.32
2022-11-27T12:03:17.743Z,10.00
2022-11-27T12:06:17.342Z,9.43
2022-11-27T12:09:18.072Z,8.80
2022-11-27T12:11:53.795Z,9.60
2022-11-27T12:14:52.706Z,8.68
2022-11-27T12:18:07.111Z,9.77
2022-11-27T12:21:28.477Z,8.25
2022-11-27T12:24:19.436Z,7.53
2022-11-27T12:27:05.585Z,7.53
2022-11-27T12:29:53.035Z,7.82
2022-11-27T12:32:37.044Z,6.70
2022-11-27T12:35:19.486Z,9.85
2022-11-27T12:37:58.521Z,8.43
2022-11-27T12:40:53.439Z,10.07
2022-11-27T12:43:30.280Z,9.82
2022-11-27T12:46:17.063Z,11.57
2022-11-27T12:48:54.009Z,8.55
2022-11-27T12:51:32.169Z,9.45
2022-11-27T12:54:19.486Z,8.63
2022-11-27T12:57:13.962Z,9.30
2022-11-27T12:59:42.443Z,10.85
2022-11-27T13:02:24.582Z,11.07
2022-11-27T13:05:15.474Z,9.13
2022-11-27T13:08:40.052Z,8.65
2022-11-27T13:11:17.824Z,11.32
2022-11-27T13:13:50.203Z,11.68
2022-11-27T13:16:38.471Z,10.50
2022-11-27T13:19:33.386Z,10.55
2022-11-27T13:22:03.831Z,9.25
2022-11-27T13:24:31.109Z,9.30
2022-11-27T13:27:19.479Z,12.35
2022-11-27T13:29:57.842Z,10.30
2022-11-27T13:32:32.840Z,9.32
2022-11-27T13:35:06.988Z,9.90
2022-11-27T13:37:45.032Z,10.18
2022-11-27T13:40:30.873Z,11.43
2022-11-27T13:43:19.287Z,8.73
2022-11-27T13:45:46.503Z,8.35
2022-11-27T13:48:33.285Z,8.90
2022-11-27T13:51:00.797Z,8.18
2022-11-27T13:53:43.631Z,10.35
2022-11-27T13:56:10.611Z,11.68
2022-11-27T13:58:43.156Z,10.52
2022-11-27T14:01:24.768Z,11.30
2022-11-27T14:06:30.583Z,7.13
2022-11-27T14:09:01.632Z,12.57
2022-11-27T14:11:43.618Z,9.88
2022-11-27T14:14:22.996Z,9.50
2022-11-27T14:17:04.937Z,10.63
2022-11-27T14:19:42.324Z,9.55
2022-11-27T14:23:10.039Z,11.70
2022-11-27T14:25:37.345Z,14.43
2022-11-27T14:28:19.652Z,14.98
2022-11-27T14:30:56.904Z,12.95
2022-11-27T14:34:13.650Z,10.23
2022-11-27T14:36:35.481Z,10.82
2022-11-27T14:39:03.644Z,10.60
2022-11-27T14:41:31.432Z,11.90
2022-11-27T14:44:14.811Z,9.25
2022-11-27T14:46:42.191Z,11.23
2022-11-27T14:49:19.431Z,11.15
2022-11-27T14:51:46.802Z,12.32
2022-11-27T14:54:36.535Z,11.73
2022-11-27T14:57:05.632Z,11.90
2022-11-27T14:59:36.063Z,14.18
2022-11-27T15:02:18.684Z,14.65
2022-11-27T15:04:49.008Z,16.65
2022-11-27T15:07:25.374Z,15.27
2022-11-27T15:10:00.225Z,12.52
2022-11-27T15:12:34.048Z,14.00
2022-11-27T15:15:07.667Z,10.90
2022-11-27T15:17:40.855Z,11.93
2022-11-27T15:20:34.709Z,13.02
2022-11-27T15:23:02.091Z,11.02
2022-11-27T15:25:43.743Z,13.65
2022-11-27T15:28:28.384Z,14.73
2022-11-27T15:30:57.126Z,13.40
2022-11-27T15:33:33.146Z,12.45
2022-11-27T15:36:18.885Z,13.65
2022-11-27T15:38:46.878Z,11.75
2022-11-27T15:41:27.808Z,13.18
2022-11-27T15:43:56.297Z,11.35
2022-11-27T15:46:31.978Z,13.68
2022-11-27T15:49:05.142Z,14.20
2022-11-27T15:51:32.258Z,11.52
2022-11-27T15:53:59.339Z,13.50
2022-11-27T15:56:26.219Z,12.07
2022-11-27T15:58:55.184Z,12.93
2022-11-27T16:01:26.715Z,11.52
2022-11-27T16:06:24.746Z,7.18
2022-11-27T16:09:00.405Z,8.88
2022-11-27T16:11:30.231Z,11.38
2022-11-27T16:13:59.881Z,12.38
2022-11-27T16:16:27.412Z,11.23
2022-11-27T16:18:59.911Z,11.13
2022-11-27T16:21:30.453Z,13.85
2022-11-27T16:24:07.176Z,12.82
2022-11-27T16:26:36.892Z,12.88
2022-11-27T16:29:10.012Z,12.10
2022-11-27T16:31:37.361Z,12.05
2022-11-27T16:34:07.169Z,12.98
2022-11-27T16:36:37.150Z,12.32
2022-11-27T16:39:08.926Z,11.85
2022-11-27T16:41:36.314Z,13.48
2022-11-27T16:44:13.549Z,10.95
2022-11-27T16:46:41.438Z,13.70
2022-11-27T16:49:12.888Z,17.40
2022-11-27T16:51:41.005Z,15.30
2022-11-27T16:54:11.807Z,12.48
2022-11-27T16:56:38.735Z,13.07
2022-11-27T16:59:11.306Z,12.15
2022-11-27T17:01:42.378Z,11.63
2022-11-27T17:04:16.257Z,10.95
2022-11-27T17:06:45.748Z,10.60
2022-11-27T17:09:13.103Z,12.07
2022-11-27T17:11:48.473Z,12.73
2022-11-27T17:14:16.316Z,11.65
2022-11-27T17:16:43.509Z,11.75
2022-11-27T17:19:15.656Z,12.77
2022-11-27T17:21:45.065Z,12.25
2022-11-27T17:24:17.820Z,10.65
2022-11-27T17:26:48.964Z,11.98
2022-11-27T17:29:19.249Z,11.32
2022-11-27T17:31:48.523Z,11.98
2022-11-27T17:34:17.070Z,14.32
2022-11-27T17:36:46.735Z,14.02
2022-11-27T17:39:14.871Z,12.30
2022-11-27T17:41:46.375Z,12.05
2022-11-27T17:44:13.928Z,14.40
2022-11-27T17:46:41.180Z,16.20
2022-11-27T17:49:08.523Z,13.45
2022-11-27T17:51:36.593Z,13.27
2022-11-27T17:54:05.581Z,14.32
2022-11-27T17:56:35.300Z,15.68
2022-11-27T17:59:02.765Z,15.18
2022-11-27T18:01:31.189Z,18.08
2022-11-27T18:04:01.112Z,15.30
2022-11-27T18:06:28.466Z,14.32
2022-11-27T18:08:58.165Z,14.73
2022-11-27T18:11:29.558Z,16.85
2022-11-27T18:13:56.790Z,15.98
2022-11-27T18:16:30.641Z,18.48
2022-11-27T18:18:59.042Z,16.38
2022-11-27T18:21:28.542Z,15.40
2022-11-27T18:29:34.638Z,11.98
2022-11-27T18:32:01.645Z,16.85
2022-11-27T18:34:28.743Z,13.25
2022-11-27T18:36:57.474Z,12.32
2022-11-27T18:39:27.082Z,15.80
2022-11-27T18:41:56.543Z,14.15
2022-11-27T18:44:23.530Z,15.25
2022-11-27T18:46:52.813Z,14.45
2022-11-27T18:49:22.891Z,15.02
2022-11-27T18:51:51.776Z,14.23
2022-11-27T18:54:19.162Z,15.00
2022-11-27T18:56:46.542Z,13.98
2022-11-27T18:59:13.651Z,13.75
2022-11-27T19:01:42.708Z,13.50
2022-11-27T19:04:11.689Z,15.80
2022-11-27T19:06:42.944Z,15.15
2022-11-27T19:09:18.054Z,14.10
2022-11-27T19:11:44.969Z,13.88
2022-11-27T19:14:14.950Z,13.52
2022-11-27T19:16:47.133Z,14.85
2022-11-27T19:22:10.271Z,13.98
2022-11-27T19:24:37.582Z,13.07
2022-11-27T19:27:09.058Z,15.30
2022-11-27T19:29:36.320Z,13.85
2022-11-27T19:32:05.917Z,11.40
2022-11-27T19:34:35.097Z,13.63
2022-11-27T19:37:02.188Z,13.65
2022-11-27T19:39:31.627Z,12.30
2022-11-27T19:41:58.617Z,15.48
2022-11-27T19:44:26.033Z,16.10
2022-11-27T19:46:55.490Z,15.85
2022-11-27T19:49:22.682Z,13.93
2022-11-27T19:51:50.864Z,14.93
2022-11-27T19:54:19.354Z,15.55
2022-11-27T19:56:46.585Z,14.77
2022-11-27T19:59:24.237Z,16.10
2022-11-27T20:01:57.669Z,13.35
2022-11-27T20:04:24.759Z,13.93
2022-11-27T20:06:53.518Z,13.63
2022-11-27T20:09:20.682Z,15.27
2022-11-27T20:11:50.103Z,19.73
2022-11-27T20:14:20.227Z,13.77
2022-11-27T20:16:50.218Z,14.68
2022-11-27T20:19:17.242Z,14.95
2022-11-27T20:21:44.515Z,17.02
2022-11-27T20:24:11.813Z,15.50
2022-11-27T20:26:42.855Z,15.73
2022-11-27T20:29:14.166Z,15.77
2022-11-27T20:31:44.590Z,16.58
2022-11-27T20:34:19.728Z,16.05
2022-11-27T20:36:47.329Z,17.02
2022-11-27T20:39:20.525Z,15.05
2022-11-27T20:41:51.036Z,16.52
2022-11-27T20:44:18.486Z,15.85
2022-11-27T20:46:50.456Z,17.45
2022-11-27T20:49:20.803Z,15.70
2022-11-27T20:51:52.098Z,13.23
2022-11-27T20:54:19.245Z,13.00
2022-11-27T20:56:47.533Z,11.05
2022-11-27T20:59:17.131Z,12.18
2022-11-27T21:01:44.162Z,11.90
2022-11-27T21:04:21.881Z,11.35
2022-11-27T21:06:49.017Z,12.95
2022-11-27T21:09:19.222Z,12.55
2022-11-27T21:11:47.683Z,12.75
2022-11-27T21:14:18.677Z,14.50
2022-11-27T21:16:51.553Z,14.73
2022-11-27T21:19:25.363Z,16.45
2022-11-27T21:21:57.246Z,14.07
2022-11-27T21:24:29.869Z,14.40
2022-11-27T21:26:57.050Z,14.95
2022-11-27T21:29:25.817Z,15.05
2022-11-27T21:31:53.938Z,15.20
2022-11-27T21:34:21.195Z,16.83
2022-11-27T21:36:50.586Z,21.02
2022-11-27T21:39:20.517Z,17.50
2022-11-27T21:41:52.258Z,21.42
2022-11-27T21:46:49.848Z,18.33
2022-11-27T21:49:21.243Z,20.58
2022-11-27T21:51:53.389Z,16.45
2022-11-27T21:54:20.975Z,15.90
2022-11-27T21:56:55.842Z,15.15
2022-11-27T21:59:24.863Z,15.05
2022-11-27T22:01:52.113Z,17.02
2022-11-27T22:04:19.407Z,14.73
2022-11-27T22:06:48.665Z,16.17
2022-11-27T22:09:18.126Z,16.90
2022-11-27T22:11:49.309Z,14.98
2022-11-27T22:14:16.784Z,14.43
2022-11-27T22:16:47.198Z,15.23
2022-11-27T22:19:15.120Z,12.63
2022-11-27T22:21:42.083Z,14.57
2022-11-27T22:24:18.256Z,15.93
2022-11-27T22:26:48.578Z,14.23
2022-11-27T22:29:15.856Z,16.65
2022-11-27T22:31:42.960Z,16.02
2022-11-27T22:34:12.007Z,15.02
2022-11-27T22:36:41.435Z,15.68
2022-11-27T22:39:09.154Z,14.48
2022-11-27T22:41:39.598Z,15.32
2022-11-27T22:44:18.512Z,14.02
2022-11-27T22:46:46.127Z,16.00
2022-11-27T22:49:17.085Z,13.20
2022-11-27T22:51:45.179Z,11.30
2022-11-27T22:54:15.181Z,13.82
2022-11-27T22:56:45.827Z,14.75
2022-11-27T23:02:00.131Z,13.23
2022-11-27T23:04:27.149Z,14.20
2022-11-27T23:06:58.626Z,13.55
2022-11-27T23:09:27.663Z,13.95
2022-11-27T23:11:56.418Z,13.65
2022-11-27T23:14:24.806Z,14.73
2022-11-27T23:16:51.853Z,12.80
2022-11-27T23:19:21.537Z,14.43
2022-11-27T23:21:48.466Z,11.88
2022-11-27T23:24:16.077Z,13.63
2022-11-27T23:26:43.980Z,13.80
2022-11-27T23:29:13.875Z,15.13
2022-11-27T23:31:40.936Z,13.60
2022-11-27T23:34:16.169Z,12.20
2022-11-27T23:36:47.780Z,11.98
2022-11-27T23:41:49.546Z,9.25
2022-11-27T23:44:21.900Z,10.18
2022-11-27T23:46:51.787Z,12.05
2022-11-27T23:49:21.725Z,11.27
2022-11-27T23:51:51.093Z,12.40
2022-11-27T23:54:18.010Z,11.90
2022-11-27T23:56:50.281Z,12.13
2022-11-27T23:59:17.136Z,14.60
